Time;durP1;ratioP1;P1;durP2;ratioP2;P2;SDS_P1;SDS_P2;PMS_P1;PMS_P2;Temp;Humidity;BMP_temperature;BMP_pressure;BME280_temperature;BME280_humidity;BME280_pressure;Samples;Min_cycle;Max_cycle;Signal;HPM_P1;HPM_P2
2020/12/19 00:01:12;;;;;;;11.83;7.27;;;6.50;99.90;;;;;;4901188;29;20232;-73
2020/12/19 00:03:38;;;;;;;11.03;7.07;;;6.40;99.90;;;;;;4895334;28;20231;-73
2020/12/19 00:06:07;;;;;;;10.77;6.07;;;6.50;99.90;;;;;;4890055;28;20223;-72
2020/12/19 00:08:33;;;;;;;10.87;6.17;;;6.50;99.90;;;;;;4903217;28;20234;-73
2020/12/19 00:10:58;;;;;;;12.70;6.63;;;6.50;99.90;;;;;;4931087;28;20451;-73
2020/12/19 00:13:24;;;;;;;13.60;7.43;;;6.50;99.90;;;;;;4945316;28;20234;-72
2020/12/19 00:15:50;;;;;;;13.37;6.50;;;6.40;99.90;;;;;;4911680;29;20220;-73
2020/12/19 00:18:15;;;;;;;16.07;7.10;;;6.40;99.90;;;;;;4887568;29;20220;-72
2020/12/19 00:20:41;;;;;;;11.37;6.57;;;6.50;99.90;;;;;;4909303;29;20360;-71
2020/12/19 00:23:07;;;;;;;11.47;6.37;;;6.50;99.90;;;;;;4910160;29;20259;-71
2020/12/19 00:25:32;;;;;;;12.73;6.67;;;6.50;99.90;;;;;;4916810;28;20221;-71
2020/12/19 00:27:58;;;;;;;15.00;7.50;;;6.50;99.90;;;;;;4919224;29;20227;-71
2020/12/19 00:30:24;;;;;;;13.00;7.27;;;6.50;99.90;;;;;;4918034;28;20232;-72
2020/12/19 00:32:49;;;;;;;14.27;8.07;;;6.40;99.90;;;;;;4912387;28;20311;-71
2020/12/19 00:35:15;;;;;;;18.47;8.10;;;6.40;99.90;;;;;;4921749;29;20220;-72
2020/12/19 00:37:42;;;;;;;14.27;8.17;;;6.40;99.90;;;;;;4902484;29;20225;-72
2020/12/19 00:40:09;;;;;;;19.20;9.80;;;6.40;99.90;;;;;;4919210;29;20235;-71
2020/12/19 00:42:36;;;;;;;16.20;8.33;;;6.40;99.90;;;;;;4919131;29;20456;-72
2020/12/19 00:45:03;;;;;;;17.23;8.30;;;6.50;99.90;;;;;;4921490;29;20460;-72
2020/12/19 00:47:28;;;;;;;15.13;8.37;;;6.50;99.90;;;;;;4936735;29;20455;-71
2020/12/19 00:49:54;;;;;;;9.40;7.23;;;6.50;99.90;;;;;;4887320;29;21065;-71
2020/12/19 00:52:20;;;;;;;15.20;7.87;;;6.50;99.90;;;;;;4923969;29;20611;-71
2020/12/19 00:54:46;;;;;;;11.20;6.60;;;6.50;99.90;;;;;;4915712;29;20648;-71
2020/12/19 00:57:11;;;;;;;15.33;6.93;;;6.50;99.90;;;;;;4931666;28;20215;-71
2020/12/19 00:59:37;;;;;;;11.63;6.77;;;6.50;99.90;;;;;;4925411;28;20776;-72
2020/12/19 01:02:03;;;;;;;13.67;7.20;;;6.40;99.90;;;;;;4901848;29;20856;-71
2020/12/19 01:04:28;;;;;;;12.60;7.13;;;6.40;99.90;;;;;;4890062;28;20224;-72
2020/12/19 01:06:54;;;;;;;12.77;8.20;;;6.40;99.90;;;;;;4890709;29;20220;-71
2020/12/19 01:09:20;;;;;;;11.60;7.43;;;6.40;99.90;;;;;;4926133;29;20315;-71
2020/12/19 01:11:45;;;;;;;10.40;5.40;;;6.40;99.90;;;;;;4899837;28;20231;-72
2020/12/19 01:14:11;;;;;;;8.87;5.77;;;6.40;99.90;;;;;;4889283;29;20216;-72
2020/12/19 01:16:38;;;;;;;12.80;6.50;;;6.50;99.90;;;;;;4895281;29;20217;-71
2020/12/19 01:19:04;;;;;;;12.80;7.00;;;6.50;99.90;;;;;;4906304;29;20566;-72
2020/12/19 01:21:30;;;;;;;9.37;6.50;;;6.50;99.90;;;;;;4905009;28;20507;-71
2020/12/19 01:23:57;;;;;;;14.10;7.00;;;6.40;99.90;;;;;;4921250;29;20219;-72
2020/12/19 01:26:23;;;;;;;11.37;6.50;;;6.50;99.90;;;;;;4936726;29;20459;-72
2020/12/19 01:28:49;;;;;;;11.87;7.20;;;6.50;99.90;;;;;;4945423;28;20534;-71
2020/12/19 01:31:17;;;;;;;10.63;6.40;;;6.40;99.90;;;;;;4921319;29;20900;-71
2020/12/19 01:33:44;;;;;;;10.70;7.47;;;6.50;99.90;;;;;;4936499;28;20452;-71
2020/12/19 01:36:21;;;;;;;10.40;6.30;;;6.40;99.90;;;;;;4936006;28;20531;-71
2020/12/19 01:38:47;;;;;;;9.77;6.37;;;6.40;99.90;;;;;;4923038;28;20454;-71
2020/12/19 01:41:13;;;;;;;12.23;6.70;;;6.40;99.90;;;;;;4922016;29;20467;-71
2020/12/19 01:43:51;;;;;;;11.20;6.67;;;6.40;99.90;;;;;;4921275;28;20460;-72
2020/12/19 01:46:26;;;;;;;12.10;7.13;;;6.40;99.90;;;;;;4946340;29;20835;-72
2020/12/19 01:48:52;;;;;;;15.17;7.50;;;6.40;99.90;;;;;;4904457;28;20466;-71
2020/12/19 01:51:17;;;;;;;8.70;6.30;;;6.40;99.90;;;;;;4909622;28;20997;-72
2020/12/19 01:53:43;;;;;;;10.47;7.10;;;6.40;99.90;;;;;;4938553;28;20463;-72
2020/12/19 01:56:10;;;;;;;12.30;7.13;;;6.40;99.90;;;;;;4905481;28;20215;-72
2020/12/19 01:58:37;;;;;;;8.67;5.60;;;6.30;99.90;;;;;;4932118;28;20223;-71
2020/12/19 02:01:02;;;;;;;11.13;6.40;;;6.30;99.90;;;;;;4891426;29;20557;-72
2020/12/19 02:03:54;;;;;;;13.27;6.70;;;6.30;99.90;;;;;;4926044;28;20562;-72
2020/12/19 02:06:22;;;;;;;9.27;6.07;;;6.30;99.90;;;;;;4936093;28;20231;-72
2020/12/19 02:08:49;;;;;;;9.43;6.10;;;6.40;99.90;;;;;;4919948;29;20459;-72
2020/12/19 02:11:15;;;;;;;10.47;6.37;;;6.40;99.90;;;;;;4913635;28;20460;-71
2020/12/19 02:13:41;;;;;;;10.67;5.43;;;6.40;99.90;;;;;;4925515;28;20526;-73
2020/12/19 02:16:06;;;;;;;10.90;6.73;;;6.40;99.90;;;;;;4905072;29;20480;-71
2020/12/19 02:18:32;;;;;;;9.20;6.27;;;6.40;99.90;;;;;;4951217;28;20224;-71
2020/12/19 02:20:58;;;;;;;10.70;5.97;;;6.30;99.90;;;;;;4933424;28;20227;-71
2020/12/19 02:23:23;;;;;;;9.10;6.00;;;6.40;99.90;;;;;;4907220;28;20215;-71
2020/12/19 02:25:49;;;;;;;7.57;5.07;;;6.40;99.90;;;;;;4939749;29;20255;-71
2020/12/19 02:28:15;;;;;;;11.20;6.37;;;6.40;99.90;;;;;;4926031;29;20227;-71
2020/12/19 02:30:41;;;;;;;10.87;5.97;;;6.40;99.90;;;;;;4926630;28;20231;-71
2020/12/19 02:33:06;;;;;;;11.03;6.40;;;6.40;99.90;;;;;;4910463;29;20515;-71
2020/12/19 02:35:32;;;;;;;7.90;5.80;;;6.40;99.90;;;;;;4940730;28;20606;-71
2020/12/19 02:38:01;;;;;;;11.27;6.37;;;6.40;99.90;;;;;;4939389;28;20306;-71
2020/12/19 02:40:27;;;;;;;8.27;6.13;;;6.40;99.90;;;;;;4938335;28;20254;-71
2020/12/19 02:42:53;;;;;;;9.20;5.33;;;6.40;99.90;;;;;;4922783;29;20496;-71
2020/12/19 02:45:19;;;;;;;8.70;5.87;;;6.30;99.90;;;;;;4929867;28;20479;-71
2020/12/19 02:47:44;;;;;;;8.07;6.10;;;6.40;99.90;;;;;;4938580;28;20210;-71
2020/12/19 02:50:10;;;;;;;9.27;6.20;;;6.40;99.90;;;;;;4924071;29;20227;-71
2020/12/19 02:52:36;;;;;;;8.87;5.37;;;6.40;99.90;;;;;;4905695;28;20270;-71
2020/12/19 02:55:01;;;;;;;8.77;5.80;;;6.30;99.90;;;;;;4926677;29;20619;-71
2020/12/19 02:57:27;;;;;;;9.30;5.77;;;6.40;99.90;;;;;;4935815;28;20584;-71
2020/12/19 02:59:53;;;;;;;10.03;5.40;;;6.40;99.90;;;;;;4924112;28;20708;-71
2020/12/19 03:02:18;;;;;;;9.17;5.93;;;6.40;99.90;;;;;;4906720;28;20263;-71
2020/12/19 03:04:44;;;;;;;8.90;5.00;;;6.30;99.90;;;;;;4953644;28;20672;-71
2020/12/19 03:07:09;;;;;;;9.40;5.80;;;6.30;99.90;;;;;;4930622;28;20227;-71
2020/12/19 03:09:35;;;;;;;9.23;5.80;;;6.30;99.90;;;;;;4906603;28;20355;-71
2020/12/19 03:12:02;;;;;;;8.60;5.70;;;6.30;99.90;;;;;;4911291;29;20293;-72
2020/12/19 03:14:28;;;;;;;7.80;5.53;;;6.30;99.90;;;;;;4937789;28;20230;-72
2020/12/19 03:16:54;;;;;;;8.90;6.00;;;6.30;99.90;;;;;;4918493;29;20451;-71
2020/12/19 03:19:19;;;;;;;8.90;5.33;;;6.30;99.90;;;;;;4914553;28;20222;-71
2020/12/19 03:21:45;;;;;;;9.93;6.57;;;6.30;99.90;;;;;;4887497;29;20247;-72
2020/12/19 03:24:11;;;;;;;8.33;5.30;;;6.30;99.90;;;;;;4934851;29;20219;-71
2020/12/19 03:26:36;;;;;;;10.40;6.47;;;6.30;99.90;;;;;;4887282;28;20274;-71
2020/12/19 03:29:03;;;;;;;11.17;5.90;;;6.30;99.90;;;;;;4931204;29;20239;-71
2020/12/19 03:31:29;;;;;;;11.63;6.50;;;6.30;99.90;;;;;;4917533;28;20228;-72
2020/12/19 03:33:54;;;;;;;10.40;7.00;;;6.30;99.90;;;;;;4903742;29;20467;-71
2020/12/19 03:36:20;;;;;;;9.10;6.33;;;6.30;99.90;;;;;;4903704;29;20969;-71
2020/12/19 03:38:46;;;;;;;9.17;6.00;;;6.30;99.90;;;;;;4897523;29;20319;-71
2020/12/19 03:41:12;;;;;;;12.63;7.00;;;6.30;99.90;;;;;;4938894;29;20769;-71
2020/12/19 03:43:37;;;;;;;8.80;6.10;;;6.30;99.90;;;;;;4934029;29;20242;-71
2020/12/19 03:46:03;;;;;;;10.03;6.70;;;6.30;99.90;;;;;;4898123;29;20456;-71
2020/12/19 03:48:29;;;;;;;12.30;6.30;;;6.30;99.90;;;;;;4888077;28;20233;-71
2020/12/19 03:50:55;;;;;;;11.73;5.87;;;6.30;99.90;;;;;;4903211;29;20224;-71
2020/12/19 03:53:20;;;;;;;9.30;5.90;;;6.30;99.90;;;;;;4915789;29;20236;-70
2020/12/19 03:55:46;;;;;;;11.80;6.33;;;6.30;99.90;;;;;;4927978;29;20228;-71
2020/12/19 03:58:13;;;;;;;10.47;6.57;;;6.30;99.90;;;;;;4919931;28;20262;-71
2020/12/19 04:00:38;;;;;;;11.13;5.90;;;6.30;99.90;;;;;;4925785;28;20235;-72
2020/12/19 04:03:18;;;;;;;10.73;6.50;;;6.20;99.90;;;;;;4906532;28;20475;-71
2020/12/19 04:05:44;;;;;;;8.30;5.90;;;6.30;99.90;;;;;;4920086;28;20226;-71
2020/12/19 04:08:09;;;;;;;12.30;5.73;;;6.30;99.90;;;;;;4938688;29;20455;-71
2020/12/19 04:10:35;;;;;;;10.83;6.47;;;6.30;99.90;;;;;;4928480;28;20226;-71
2020/12/19 04:13:01;;;;;;;15.27;7.43;;;6.30;99.90;;;;;;4966709;28;20227;-71
2020/12/19 04:15:26;;;;;;;11.70;7.57;;;6.30;99.90;;;;;;4941467;28;20218;-71
2020/12/19 04:17:53;;;;;;;12.43;7.20;;;6.20;99.90;;;;;;4941088;28;20219;-72
2020/12/19 04:20:19;;;;;;;8.73;6.03;;;6.30;99.90;;;;;;4937932;29;20242;-71
2020/12/19 04:22:45;;;;;;;12.37;7.27;;;6.30;99.90;;;;;;4949024;28;20446;-71
2020/12/19 04:25:11;;;;;;;12.43;6.90;;;6.30;99.90;;;;;;4924346;28;20701;-71
2020/12/19 04:27:38;;;;;;;12.47;6.70;;;6.30;99.90;;;;;;4897854;29;20227;-71
2020/12/19 04:30:05;;;;;;;11.97;7.50;;;6.20;99.90;;;;;;4902773;29;20661;-74
2020/12/19 04:32:31;;;;;;;13.50;7.80;;;6.30;99.90;;;;;;4921558;29;20474;-71
2020/12/19 04:34:56;;;;;;;8.87;6.50;;;6.20;99.90;;;;;;4914432;29;20460;-72
2020/12/19 04:37:23;;;;;;;13.73;6.60;;;6.20;99.90;;;;;;4912062;29;20220;-72
2020/12/19 04:39:49;;;;;;;11.57;7.00;;;6.20;99.90;;;;;;4916680;29;20236;-71
2020/12/19 04:42:15;;;;;;;13.03;7.37;;;6.30;99.90;;;;;;4916000;29;20526;-71
2020/12/19 04:44:41;;;;;;;10.60;7.00;;;6.20;99.90;;;;;;4918158;29;20310;-71
2020/12/19 04:47:06;;;;;;;12.37;7.00;;;6.20;99.90;;;;;;4900478;28;20225;-71
2020/12/19 04:50:07;;;;;;;9.50;5.70;;;6.20;99.90;;;;;;4914354;29;20456;-71
2020/12/19 04:52:33;;;;;;;13.60;6.57;;;6.20;99.90;;;;;;4917031;28;20481;-72
2020/12/19 04:54:58;;;;;;;9.60;6.10;;;6.20;99.90;;;;;;4906247;29;20440;-72
2020/12/19 04:57:24;;;;;;;14.10;6.80;;;6.20;99.90;;;;;;4930136;29;20677;-71
2020/12/19 04:59:50;;;;;;;10.37;6.40;;;6.20;99.90;;;;;;4913547;29;20237;-72
2020/12/19 05:02:16;;;;;;;9.10;6.43;;;6.20;99.90;;;;;;4900003;29;20228;-72
2020/12/19 05:04:42;;;;;;;10.67;7.83;;;6.20;99.90;;;;;;4937644;28;20223;-72
2020/12/19 05:07:14;;;;;;;11.47;7.10;;;6.20;99.90;;;;;;4922315;29;20220;-72
2020/12/19 05:09:42;;;;;;;12.93;6.60;;;6.20;99.90;;;;;;4922366;28;20980;-72
2020/12/19 05:12:10;;;;;;;10.43;6.60;;;6.20;99.90;;;;;;4938086;28;20537;-72
2020/12/19 05:14:36;;;;;;;10.00;7.47;;;6.20;99.90;;;;;;4921563;29;20459;-72
2020/12/19 05:17:02;;;;;;;12.80;6.90;;;6.20;99.90;;;;;;4937910;29;20456;-72
2020/12/19 05:19:28;;;;;;;9.07;6.80;;;6.20;99.90;;;;;;4920207;29;20451;-72
2020/12/19 05:21:55;;;;;;;8.67;6.13;;;6.20;99.90;;;;;;4937509;29;20899;-72
2020/12/19 05:24:34;;;;;;;11.20;6.60;;;6.20;99.90;;;;;;4921932;29;20227;-73
2020/12/19 05:27:02;;;;;;;9.70;6.43;;;6.20;99.90;;;;;;4922381;29;20455;-72
2020/12/19 05:29:28;;;;;;;13.03;6.40;;;6.20;99.90;;;;;;4920993;29;20518;-72
2020/12/19 05:31:56;;;;;;;10.67;6.63;;;6.20;99.90;;;;;;4921288;29;20878;-72
2020/12/19 05:34:22;;;;;;;12.90;6.20;;;6.20;99.90;;;;;;4920958;28;20208;-71
2020/12/19 05:36:50;;;;;;;13.50;7.77;;;6.20;99.90;;;;;;4937438;29;20455;-72
2020/12/19 05:39:16;;;;;;;11.47;7.20;;;6.20;99.90;;;;;;4921586;29;20466;-69
2020/12/19 05:41:42;;;;;;;9.83;6.70;;;6.20;99.90;;;;;;4920648;28;20463;-71
2020/12/19 05:44:08;;;;;;;12.20;7.07;;;6.20;99.90;;;;;;4903046;29;20448;-72
2020/12/19 05:46:36;;;;;;;13.30;7.80;;;6.10;99.90;;;;;;4890087;29;20543;-73
2020/12/19 05:49:04;;;;;;;12.87;7.63;;;6.20;99.90;;;;;;4921744;29;20232;-72
2020/12/19 05:51:32;;;;;;;12.80;7.97;;;6.20;99.90;;;;;;4921429;28;20964;-70
2020/12/19 05:54:20;;;;;;;10.30;5.90;;;6.10;99.90;;;;;;4920927;29;20506;-72
2020/12/19 05:56:50;;;;;;;10.10;6.40;;;6.10;99.90;;;;;;4917710;29;20452;-72
2020/12/19 05:59:18;;;;;;;12.80;6.80;;;6.10;99.90;;;;;;4903139;29;20484;-72
2020/12/19 06:01:48;;;;;;;10.03;6.50;;;6.20;99.90;;;;;;4900043;28;20514;-72
2020/12/19 06:04:15;;;;;;;10.17;6.63;;;6.10;99.90;;;;;;4907436;29;21045;-72
2020/12/19 06:06:43;;;;;;;14.70;7.07;;;6.20;99.90;;;;;;4927452;28;20467;-71
2020/12/19 06:09:11;;;;;;;12.20;7.87;;;6.20;99.90;;;;;;4921326;29;20451;-71
2020/12/19 06:12:06;;;;;;;12.20;7.37;;;6.10;99.90;;;;;;4919726;28;20999;-72
2020/12/19 06:14:39;;;;;;;13.10;6.73;;;6.10;99.90;;;;;;4936518;28;20474;-72
2020/12/19 06:17:16;;;;;;;13.17;8.10;;;6.20;99.90;;;;;;4920944;29;20459;-72
2020/12/19 06:19:46;;;;;;;15.90;9.40;;;6.10;99.90;;;;;;4920165;29;20448;-72
2020/12/19 06:22:12;;;;;;;14.37;8.90;;;6.20;99.90;;;;;;4921040;29;20466;-72
2020/12/19 06:24:42;;;;;;;16.40;8.23;;;6.10;99.90;;;;;;4936562;29;20463;-71
2020/12/19 06:27:28;;;;;;;15.90;9.60;;;6.10;99.90;;;;;;4917582;28;20240;-72
2020/12/19 06:29:54;;;;;;;17.00;10.03;;;6.10;99.90;;;;;;4890544;29;20460;-72
2020/12/19 06:32:21;;;;;;;17.60;10.60;;;6.10;99.90;;;;;;4934783;29;20519;-72
2020/12/19 06:35:09;;;;;;;13.57;9.30;;;6.10;99.90;;;;;;4917435;29;20342;-72
2020/12/19 06:37:38;;;;;;;14.27;8.23;;;6.10;99.90;;;;;;4901644;29;20495;-72
2020/12/19 06:40:06;;;;;;;13.57;7.77;;;6.10;99.90;;;;;;4901771;29;20480;-71
2020/12/19 06:42:32;;;;;;;14.63;8.37;;;6.10;99.90;;;;;;4918427;29;20460;-72
2020/12/19 06:45:21;;;;;;;18.53;8.00;;;6.00;99.90;;;;;;4910150;29;20676;-72
2020/12/19 06:47:46;;;;;;;13.50;7.87;;;6.00;99.90;;;;;;4917310;29;20217;-71
2020/12/19 06:50:12;;;;;;;11.17;7.33;;;6.00;99.90;;;;;;4911279;29;20472;-72
2020/12/19 06:52:55;;;;;;;17.73;8.07;;;6.00;99.90;;;;;;4919873;29;20238;-72
2020/12/19 06:55:23;;;;;;;16.07;7.90;;;6.00;99.90;;;;;;4933199;29;20248;-72
2020/12/19 06:57:51;;;;;;;13.27;9.30;;;6.10;99.90;;;;;;4935576;29;20472;-72
2020/12/19 07:00:21;;;;;;;16.33;7.93;;;6.10;99.90;;;;;;4919957;29;20475;-71
2020/12/19 07:02:48;;;;;;;18.47;8.37;;;6.10;99.90;;;;;;4919836;29;20951;-72
2020/12/19 07:05:19;;;;;;;11.30;7.77;;;6.10;99.90;;;;;;4936114;29;20451;-72
2020/12/19 07:07:45;;;;;;;11.63;7.70;;;6.10;99.90;;;;;;4919801;29;20459;-72
2020/12/19 07:10:11;;;;;;;15.30;8.33;;;6.10;99.90;;;;;;4935736;29;20471;-72
2020/12/19 07:12:38;;;;;;;16.47;8.77;;;6.10;99.90;;;;;;4903720;29;20228;-71
2020/12/19 07:15:08;;;;;;;13.17;7.80;;;6.10;99.90;;;;;;4919677;29;20227;-73
2020/12/19 07:17:49;;;;;;;14.93;9.27;;;6.10;99.90;;;;;;4935717;29;20459;-72
2020/12/19 07:20:22;;;;;;;17.67;8.97;;;6.10;99.90;;;;;;4935639;29;20563;-72
2020/12/19 07:22:49;;;;;;;18.67;10.07;;;6.10;99.90;;;;;;4919423;29;20456;-72
2020/12/19 07:25:15;;;;;;;13.00;8.80;;;6.10;99.90;;;;;;4935892;29;20455;-73
2020/12/19 07:27:40;;;;;;;17.00;9.47;;;6.10;99.90;;;;;;4919801;29;20482;-73
2020/12/19 07:30:06;;;;;;;17.40;10.30;;;6.10;99.90;;;;;;4916457;29;20271;-73
2020/12/19 07:32:32;;;;;;;22.10;10.93;;;6.10;99.90;;;;;;4900547;29;20229;-73
2020/12/19 07:34:58;;;;;;;19.37;10.00;;;6.10;99.90;;;;;;4927883;29;20224;-72
2020/12/19 07:37:25;;;;;;;17.17;9.50;;;6.10;99.90;;;;;;4903820;29;20270;-71
2020/12/19 07:40:02;;;;;;;19.57;10.67;;;6.10;99.90;;;;;;4915941;29;20460;-72
2020/12/19 07:42:28;;;;;;;16.33;8.93;;;6.10;99.90;;;;;;4926268;29;20520;-72
2020/12/19 07:44:54;;;;;;;15.43;9.90;;;6.10;99.90;;;;;;4903352;29;20840;-72
2020/12/19 07:47:19;;;;;;;17.40;10.03;;;6.10;99.90;;;;;;4902051;29;20235;-72
2020/12/19 07:49:47;;;;;;;19.13;9.53;;;6.10;99.90;;;;;;4914806;29;20268;-72
2020/12/19 07:52:24;;;;;;;17.30;9.97;;;6.10;99.90;;;;;;4930774;29;20470;-72
2020/12/19 07:54:58;;;;;;;16.03;9.00;;;6.10;99.90;;;;;;4918548;29;20451;-72
2020/12/19 07:57:26;;;;;;;13.50;9.23;;;6.10;99.90;;;;;;4918725;29;20466;-72
2020/12/19 07:59:55;;;;;;;13.97;8.33;;;6.10;99.90;;;;;;4918617;29;20510;-72
2020/12/19 08:02:22;;;;;;;16.30;9.43;;;6.10;99.90;;;;;;4904295;29;20477;-72
2020/12/19 08:04:58;;;;;;;16.77;9.07;;;6.00;99.90;;;;;;4918930;29;20455;-72
2020/12/19 08:07:29;;;;;;;20.03;9.90;;;6.00;99.90;;;;;;4918894;29;20836;-72
2020/12/19 08:10:06;;;;;;;14.47;9.13;;;6.00;99.90;;;;;;4918670;29;20462;-72
2020/12/19 08:12:32;;;;;;;18.57;9.10;;;6.10;99.90;;;;;;4918594;28;20817;-74
2020/12/19 08:15:02;;;;;;;15.53;8.73;;;6.10;99.90;;;;;;4950885;28;20461;-74
2020/12/19 08:17:28;;;;;;;15.77;9.13;;;6.10;99.90;;;;;;4918785;28;20278;-74
2020/12/19 08:19:57;;;;;;;15.17;9.10;;;6.10;99.90;;;;;;4919555;29;20479;-75
2020/12/19 08:22:23;;;;;;;18.60;10.90;;;6.10;99.90;;;;;;4902962;28;20455;-73
2020/12/19 08:24:50;;;;;;;19.20;9.03;;;6.00;99.90;;;;;;4903702;29;20454;-74
2020/12/19 08:27:33;;;;;;;16.27;9.27;;;6.00;99.90;;;;;;4901545;29;20534;-74
2020/12/19 08:30:13;;;;;;;14.83;9.37;;;6.00;99.90;;;;;;4934958;29;20587;-74
2020/12/19 08:32:51;;;;;;;12.77;7.53;;;6.00;99.90;;;;;;4906657;28;20491;-74
2020/12/19 08:35:22;;;;;;;11.93;7.30;;;6.00;99.90;;;;;;4903856;29;20455;-74
2020/12/19 08:37:48;;;;;;;20.80;8.87;;;6.10;99.90;;;;;;4919326;29;20479;-72
2020/12/19 08:40:19;;;;;;;16.07;8.80;;;6.10;99.90;;;;;;4918237;29;20663;-74
2020/12/19 08:42:49;;;;;;;14.50;8.73;;;6.00;99.90;;;;;;4918207;29;20480;-74
2020/12/19 08:45:36;;;;;;;12.30;7.97;;;6.10;99.90;;;;;;4888265;29;20451;-73
2020/12/19 08:48:05;;;;;;;14.57;8.10;;;6.00;99.90;;;;;;4934599;29;20467;-73
2020/12/19 08:50:35;;;;;;;12.73;8.53;;;6.10;99.90;;;;;;4918291;29;20572;-74
2020/12/19 08:53:09;;;;;;;11.97;7.93;;;6.10;99.90;;;;;;4904618;29;20546;-72
2020/12/19 08:55:47;;;;;;;12.97;8.60;;;6.00;99.90;;;;;;4921421;29;20459;-73
2020/12/19 08:58:30;;;;;;;14.00;10.03;;;6.10;99.90;;;;;;4937834;29;20602;-73
2020/12/19 09:01:10;;;;;;;16.00;8.57;;;6.00;99.90;;;;;;4918233;29;20479;-72
2020/12/19 09:03:36;;;;;;;13.30;8.83;;;6.00;99.90;;;;;;4904098;29;20468;-72
2020/12/19 09:06:10;;;;;;;14.33;8.60;;;6.00;99.90;;;;;;4922106;29;20478;-73
2020/12/19 09:08:49;;;;;;;15.47;8.50;;;6.00;99.90;;;;;;4906859;29;20462;-72
2020/12/19 09:11:25;;;;;;;13.43;7.90;;;6.10;99.90;;;;;;4891566;29;20517;-72
2020/12/19 09:14:26;;;;;;;12.20;7.87;;;6.10;99.90;;;;;;4921543;29;20471;-72
2020/12/19 09:16:53;;;;;;;21.30;17.50;;;6.00;99.90;;;;;;4918553;29;20472;-73
2020/12/19 09:19:20;;;;;;;33.20;22.97;;;6.10;99.90;;;;;;4903370;29;20473;-72
2020/12/19 09:21:55;;;;;;;29.60;21.87;;;6.00;99.90;;;;;;4921074;28;20460;-72
2020/12/19 09:24:22;;;;;;;22.57;16.83;;;6.00;99.90;;;;;;4937111;28;20479;-72
2020/12/19 09:26:48;;;;;;;27.17;17.77;;;6.00;99.90;;;;;;4921700;29;20459;-72
2020/12/19 09:29:14;;;;;;;22.03;14.73;;;6.10;99.90;;;;;;4921339;29;21072;-73
2020/12/19 09:32:09;;;;;;;20.97;13.60;;;6.00;99.90;;;;;;4919646;28;20235;-72
2020/12/19 09:34:35;;;;;;;20.93;12.50;;;6.00;99.90;;;;;;4921175;29;20503;-72
2020/12/19 09:37:01;;;;;;;21.03;13.10;;;6.10;99.90;;;;;;4906787;29;20831;-72
2020/12/19 09:39:26;;;;;;;23.63;14.10;;;6.10;99.90;;;;;;4918248;29;20239;-70
2020/12/19 09:41:52;;;;;;;23.77;14.80;;;6.00;99.90;;;;;;4930815;29;20235;-72
2020/12/19 09:44:18;;;;;;;25.97;15.23;;;6.10;99.90;;;;;;4914576;29;20224;-72
2020/12/19 09:46:45;;;;;;;16.07;11.60;;;6.00;99.90;;;;;;4896805;29;20227;-72
2020/12/19 09:49:11;;;;;;;15.60;10.07;;;6.10;99.90;;;;;;4899978;28;20224;-73
2020/12/19 09:51:37;;;;;;;16.90;11.27;;;6.10;99.90;;;;;;4899190;28;20516;-73
2020/12/19 09:54:02;;;;;;;15.93;9.70;;;6.00;99.90;;;;;;4917690;28;20715;-72
2020/12/19 09:56:28;;;;;;;14.37;8.27;;;6.10;99.90;;;;;;4899878;28;20224;-72
2020/12/19 09:58:54;;;;;;;16.13;8.80;;;6.10;99.90;;;;;;4912028;28;20303;-72
2020/12/19 10:01:19;;;;;;;13.53;9.20;;;6.10;99.90;;;;;;4918961;28;20235;-72
2020/12/19 10:03:45;;;;;;;30.57;16.40;;;6.10;99.90;;;;;;4887738;28;20231;-73
2020/12/19 10:06:14;;;;;;;36.77;22.90;;;6.10;99.90;;;;;;4920560;29;20250;-72
2020/12/19 10:08:39;;;;;;;24.70;16.23;;;6.10;99.90;;;;;;4936486;28;20228;-72
2020/12/19 10:11:05;;;;;;;22.63;16.20;;;6.10;99.90;;;;;;4919719;28;20465;-72
2020/12/19 10:13:31;;;;;;;22.80;15.10;;;6.10;99.90;;;;;;4900799;28;20701;-72
2020/12/19 10:15:56;;;;;;;20.17;13.80;;;6.10;99.90;;;;;;4917516;29;20280;-72
2020/12/19 10:18:22;;;;;;;17.60;10.90;;;6.10;99.90;;;;;;4914963;29;20224;-73
2020/12/19 10:20:47;;;;;;;20.93;9.77;;;6.10;99.90;;;;;;4880730;29;20577;-73
2020/12/19 10:23:13;;;;;;;18.23;12.37;;;6.10;99.90;;;;;;4900093;29;20581;-72
2020/12/19 10:25:39;;;;;;;21.10;10.13;;;6.10;99.90;;;;;;4917595;29;20220;-72
2020/12/19 10:28:04;;;;;;;14.17;8.77;;;6.10;99.90;;;;;;4915805;29;20239;-73
2020/12/19 10:30:30;;;;;;;13.90;8.00;;;6.10;99.90;;;;;;4901213;28;20387;-73
2020/12/19 10:32:55;;;;;;;19.90;10.60;;;6.10;99.90;;;;;;4904760;28;20264;-73
2020/12/19 10:35:21;;;;;;;20.77;10.07;;;6.20;99.90;;;;;;4910277;29;21266;-72
2020/12/19 10:37:47;;;;;;;14.23;10.30;;;6.20;99.90;;;;;;4918677;28;20263;-73
2020/12/19 10:40:13;;;;;;;17.50;10.37;;;6.20;99.90;;;;;;4918818;28;20227;-72
2020/12/19 10:42:39;;;;;;;27.77;10.27;;;6.20;99.90;;;;;;4933718;28;20471;-72
2020/12/19 10:45:04;;;;;;;19.07;9.90;;;6.20;99.90;;;;;;4903852;29;20227;-73
2020/12/19 10:47:30;;;;;;;18.27;10.50;;;6.20;99.90;;;;;;4902888;28;20298;-72
2020/12/19 10:49:56;;;;;;;20.57;11.10;;;6.20;99.90;;;;;;4902799;29;20215;-71
2020/12/19 10:52:21;;;;;;;13.40;8.20;;;6.20;99.90;;;;;;4910743;29;20224;-73
2020/12/19 10:54:47;;;;;;;16.97;9.17;;;6.20;99.90;;;;;;4888189;28;20272;-71
2020/12/19 10:57:13;;;;;;;25.03;11.00;;;6.20;99.90;;;;;;4917934;28;20216;-71
2020/12/19 10:59:38;;;;;;;14.83;10.07;;;6.20;99.90;;;;;;4917685;28;20234;-71
2020/12/19 11:02:04;;;;;;;19.60;10.50;;;6.20;99.90;;;;;;4884323;28;20232;-71
2020/12/19 11:04:30;;;;;;;16.33;10.50;;;6.20;99.90;;;;;;4900664;28;20221;-71
2020/12/19 11:06:55;;;;;;;17.23;10.30;;;6.20;99.90;;;;;;4886282;28;20707;-72
2020/12/19 11:09:21;;;;;;;24.07;13.87;;;6.20;99.90;;;;;;4929929;29;20224;-71
2020/12/19 11:11:54;;;;;;;23.77;12.57;;;6.20;99.90;;;;;;4918260;28;20219;-71
2020/12/19 11:14:25;;;;;;;23.33;11.47;;;6.30;99.90;;;;;;4918358;29;20228;-71
2020/12/19 11:16:56;;;;;;;19.50;11.00;;;6.30;99.90;;;;;;4899776;29;20515;-72
2020/12/19 11:19:22;;;;;;;16.73;9.87;;;6.30;99.90;;;;;;4914268;28;20464;-72
2020/12/19 11:21:48;;;;;;;14.97;9.87;;;6.30;99.90;;;;;;4917065;28;20479;-72
2020/12/19 11:24:14;;;;;;;17.27;9.93;;;6.30;99.90;;;;;;4929621;28;20303;-72
2020/12/19 11:26:40;;;;;;;17.37;10.10;;;6.30;99.90;;;;;;4931862;28;20223;-71
2020/12/19 11:29:09;;;;;;;16.37;9.60;;;6.30;99.90;;;;;;4932809;29;20998;-72
2020/12/19 11:31:34;;;;;;;15.57;10.07;;;6.30;99.90;;;;;;4914147;28;20479;-71
2020/12/19 11:34:00;;;;;;;17.73;10.47;;;6.40;99.90;;;;;;4925252;28;20984;-72
2020/12/19 11:36:26;;;;;;;16.10;9.00;;;6.40;99.90;;;;;;4910654;29;20229;-71
2020/12/19 11:38:51;;;;;;;18.20;10.20;;;6.40;99.90;;;;;;4896393;28;20231;-71
2020/12/19 11:41:24;;;;;;;17.50;9.50;;;6.40;99.90;;;;;;4917370;28;20271;-71
2020/12/19 11:43:50;;;;;;;17.77;9.60;;;6.40;99.90;;;;;;4932564;29;20267;-71
2020/12/19 11:46:16;;;;;;;16.90;11.00;;;6.50;99.90;;;;;;4915653;29;20985;-72
2020/12/19 11:48:42;;;;;;;17.90;10.90;;;6.50;99.90;;;;;;4909450;28;20224;-72
2020/12/19 11:51:08;;;;;;;14.60;9.30;;;6.50;99.90;;;;;;4933138;29;20462;-72
2020/12/19 11:53:33;;;;;;;15.97;9.87;;;6.50;99.90;;;;;;4916430;28;20464;-72
2020/12/19 11:56:02;;;;;;;15.87;9.00;;;6.50;99.90;;;;;;4918073;29;20235;-71
2020/12/19 11:58:27;;;;;;;17.20;9.27;;;6.60;99.90;;;;;;4886640;29;20238;-72
2020/12/19 12:00:53;;;;;;;14.30;9.63;;;6.50;99.90;;;;;;4920188;29;20467;-71
2020/12/19 12:03:19;;;;;;;14.17;9.13;;;6.60;99.90;;;;;;4917827;29;20657;-71
2020/12/19 12:05:45;;;;;;;22.30;11.23;;;6.60;99.90;;;;;;4902761;29;20220;-72
2020/12/19 12:08:11;;;;;;;18.67;9.70;;;6.60;99.90;;;;;;4918961;29;20314;-71
2020/12/19 12:10:36;;;;;;;15.67;10.53;;;6.60;99.90;;;;;;4918522;29;20543;-71
2020/12/19 12:13:02;;;;;;;19.07;10.80;;;6.70;99.90;;;;;;4902364;29;20228;-71
2020/12/19 12:15:28;;;;;;;16.00;10.27;;;6.70;99.90;;;;;;4934492;29;20224;-72
2020/12/19 12:17:53;;;;;;;19.90;11.70;;;6.70;99.90;;;;;;4903089;29;20219;-72
2020/12/19 12:20:20;;;;;;;18.97;10.27;;;6.70;99.90;;;;;;4918803;29;20279;-72
2020/12/19 12:22:45;;;;;;;14.57;8.50;;;6.70;99.90;;;;;;4947932;28;20227;-72
2020/12/19 12:25:12;;;;;;;16.87;9.77;;;6.70;99.90;;;;;;4934675;29;20456;-72
2020/12/19 12:27:38;;;;;;;22.67;10.37;;;6.80;99.90;;;;;;4918993;29;20368;-72
2020/12/19 12:30:04;;;;;;;14.40;9.33;;;6.80;99.90;;;;;;4919474;29;20993;-72
2020/12/19 12:32:30;;;;;;;15.10;10.20;;;6.80;99.90;;;;;;4920780;29;20529;-72
2020/12/19 12:34:56;;;;;;;16.37;9.90;;;6.80;99.90;;;;;;4921458;29;20972;-72
2020/12/19 12:37:21;;;;;;;13.00;9.83;;;6.80;99.90;;;;;;4906385;29;20227;-72
2020/12/19 12:39:47;;;;;;;16.40;10.63;;;6.80;99.90;;;;;;4937003;28;20243;-72
2020/12/19 12:42:13;;;;;;;14.20;9.40;;;6.90;99.90;;;;;;4921489;29;20224;-72
2020/12/19 12:44:39;;;;;;;17.80;10.87;;;6.90;99.90;;;;;;4905660;29;20251;-72
2020/12/19 12:47:05;;;;;;;14.17;9.93;;;6.90;99.90;;;;;;4922394;29;20287;-72
2020/12/19 12:49:31;;;;;;;18.17;11.07;;;6.90;99.90;;;;;;4912792;29;20477;-71